Current | Forecast
Updated: 10:30 AM CEST on October 21, 2017
Observed at Girona, Spain
Temperature 17°C
Humidity 88%
Dew Point 15°C
Wind NE at 7 km/h
Pressure 1021 hPa (Steady)
Conditions Clear
Visibility -
UV N/A
Clouds
Yesterday's Maximum 24°C
Yesterday's Minimum 15°C approx.
Yesterday's Cooling Degree Days 2 approx.
Sunrise8:08 AM CEST
Sunset6:58 PM CEST
Moon Rise9:30 AM CEST
Moon Set8:19 PM CEST
Moon PhaseMoon Phase
New Moon
Raw METARMETAR LEGE 210830Z 04004KT 010V070 CAVOK 17/15 Q1021


Monday
. High: 87° F.
Tuesday
. High: 80° F.
Wednesday
. High: 73° F.
Thursday
. High: 71° F.
Friday
. High: 75° F.
Saturday
. High: 82° F.
Sunday
. High: 78° F.
Monday
. High: 87° F.

Click here for Marine Information
Scientific forecaster discussion (NWS)

Units: English | Metric

Find the Weather for any City, State or Zipcode, or Country:

U.S. State List | Severe Weather | Tropical Storms | Ski Conditions
United States | Canada | Central America | South America | Asia | Europe | Australia | Africa | Islands

Weather Underground

© Copyright 2017
The Weather Company, LLC